Baldwin Harbor, New York
Current Conditions -  °F | °C
As of 12:51 AM on Tuesday 21 Oct 2014 (Local Time) from KJFK Reporting Station
Broken Clouds Broken Clouds  
Wind Chill: 57°   Ceiling: 21000
Heat Index: 57°   Visibility: 10mi
Dew Point: 45°   Wind: 9mph
Humidity: 64%   Direction: 220°SW
Pressure: 29.98"   Gusts: NA
Location:  40.6539°N, 73.609°W
Report Text: KJFK 210451Z 22008KT 10SM SCT130 BKN210 14/07 A2998 RMK AO2 SLP150 T01390072 401610056
Loading
Personal Weather Stations






























Interactive Weather Map New forecast layout! Learn more

10-Day Weather Forecast

Advertisements
Track Severe Weather on mobile